Terminal Aerodrome Forecast
Issued by NWS

Home | Current Version | Previous Version | Graphics & Text | Print | Product List | Glossary On
Versions: 1 2 3 4 5 6 7 8 9 10 11 12 13 14 15 16 17 18 19 20
000
FTUS42 KMHX 152340
TAFOAJ
TAF
KOAJ 152340Z 1600/1624 VRB03KT P6SM SCT040
     FM160400 00000KT P6SM SCT050
     FM160700 00000KT 3SM BR SCT060
     FM160900 00000KT 3SM BR SCT005 BKN008
     FM161300 VRB03KT P6SM SCT015 BKN060
      AMD LTD TO CLD VIS AND WIND=

USA.gov is the U.S. government's official web portal to all federal, state and local government web resources and services.